F/V Ar Gavotten — FS9490 — position and weather

sailwx.info

Track history (hours):
 
Tides and Currents Weather Stations Pressure Air Temp Water Temp Dewpoint Dewpoint Depression Visibility Wind Speed Wind Dir Waves Ship Positions

F/V Ar Gavotten

Last reported at 2017-Nov-01 01:55 UTC. Time now 2017-Nov-19 16:05 UTC.
Position N 48°45' W 003°57'.
Warning: this ship's position is 18 days out of date.

Length 13 m.

Type: Other ship. MMSI: 227570230.

Date/timePositionNaut miles runAvg speedWind from/ knotsBaromVisibWave heightAir tempDewpointWater temp
2017-Nov-01 01:55N 48°45' W 003°57'18 1.0
2017-Oct-31 07:18N 48°58' W 004°15'2 2.1
2017-Oct-31 06:09N 49°00' W 004°13'0 1.9
2017-Oct-31 06:00N 49°00' W 004°12'1 1.9
2017-Oct-31 05:30N 49°01' W 004°11'  
2017-Oct-28 08:07N 49°01' W 004°09'2 1.5
2017-Oct-28 06:52N 48°60' W 004°11'4 3.1
2017-Oct-28 05:40N 48°57' W 004°16'2 5.4
2017-Oct-28 05:21N 48°56' W 004°18'1 2.8
2017-Oct-28 05:00N 48°55' W 004°18'1 1.9
2017-Oct-28 04:27N 48°56' W 004°17'1 2.1
2017-Oct-28 03:59N 48°57' W 004°16'6 3.4
2017-Oct-28 02:19N 48°54' W 004°09'3 8.0
2017-Oct-28 01:54N 48°51' W 004°06'4 7.9
2017-Oct-28 01:27N 48°49' W 004°02'9 0.4
2017-Oct-27 02:02N 48°56' W 004°10'0 7.4
2017-Oct-27 02:00N 48°56' W 004°10'5 0.1
2017-Oct-25 09:52N 48°55' W 004°18'8 3.9
2017-Oct-25 07:45N 49°01' W 004°09'13 6.5
2017-Oct-25 05:46N 48°49' W 004°00'3 6.2
2017-Oct-25 05:22N 48°47' W 003°59'13 0.5
2017-Oct-24 01:44N 48°55' W 004°14'3 8.2
2017-Oct-24 01:22N 48°53' W 004°11'3 8.3
2017-Oct-24 00:59N 48°51' W 004°07'  
Track history (hours):
 
Tides and Currents Weather Stations Pressure Air Temp Water Temp Dewpoint Dewpoint Depression Visibility Wind Speed Wind Dir Waves Ship Positions

F/V Ar Gavotten

Last reported at 2017-Nov-01 01:55 UTC. Time now 2017-Nov-19 16:05 UTC.
Position N 48°45' W 003°57'.
Warning: this ship's position is 18 days out of date.

Length 13 m.

Type: Other ship. MMSI: 227570230.

Date/timePositionNaut miles runAvg speedWind from/ knotsBaromVisibWave heightAir tempDewpointWater temp
2017-Nov-01 01:55N 48°45' W 003°57'18 1.0
2017-Oct-31 07:18N 48°58' W 004°15'2 2.1
2017-Oct-31 06:09N 49°00' W 004°13'0 1.9
2017-Oct-31 06:00N 49°00' W 004°12'1 1.9
2017-Oct-31 05:30N 49°01' W 004°11'  
2017-Oct-28 08:07N 49°01' W 004°09'2 1.5
2017-Oct-28 06:52N 48°60' W 004°11'4 3.1
2017-Oct-28 05:40N 48°57' W 004°16'2 5.4
2017-Oct-28 05:21N 48°56' W 004°18'1 2.8
2017-Oct-28 05:00N 48°55' W 004°18'1 1.9
2017-Oct-28 04:27N 48°56' W 004°17'1 2.1
2017-Oct-28 03:59N 48°57' W 004°16'6 3.4
2017-Oct-28 02:19N 48°54' W 004°09'3 8.0
2017-Oct-28 01:54N 48°51' W 004°06'4 7.9
2017-Oct-28 01:27N 48°49' W 004°02'9 0.4
2017-Oct-27 02:02N 48°56' W 004°10'0 7.4
2017-Oct-27 02:00N 48°56' W 004°10'5 0.1
2017-Oct-25 09:52N 48°55' W 004°18'8 3.9
2017-Oct-25 07:45N 49°01' W 004°09'13 6.5
2017-Oct-25 05:46N 48°49' W 004°00'3 6.2
2017-Oct-25 05:22N 48°47' W 003°59'13 0.5
2017-Oct-24 01:44N 48°55' W 004°14'3 8.2
2017-Oct-24 01:22N 48°53' W 004°11'3 8.3
2017-Oct-24 00:59N 48°51' W 004°07'  

Dump ship's entire track history